This is the latest recevied weather packets stored in our database for station/object WB0RXX. If no packets are shown the sender has not sent any weather packets the latest 10 day(s).
| Time | Temp. | Humidity | Pressure | Rain* | Wind** | Luminosity | Snow |
|---|---|---|---|---|---|---|---|
| 1777666205 | 11.67° C | 42% | 1019.9 hPa | 0 mm | - | - | - |
| 1777665605 | 11.11° C | 43% | 1020 hPa | 0 mm | - | - | - |
| 1777663807 | 10.56° C | 45% | 1020 hPa | 0 mm | - | - | - |
| 1777663205 | 10° C | 46% | 1020.1 hPa | 0 mm | - | - | - |
| 1777659004 | 8.89° C | 51% | 1020.2 hPa | 0 mm | - | - | - |
| 1777656004 | 8.33° C | 51% | 1020.4 hPa | 0 mm | - | - | - |
| 1777651804 | 8.89° C | 48% | 1020.4 hPa | 0 mm | - | - | - |
| 1777650005 | 7.22° C | 63% | 1020.5 hPa | 0 mm | - | - | - |
| 1777649419 | 6.67° C | 65% | 1020.4 hPa | 0 mm | - | - | - |
| 1777648804 | 6.11° C | 68% | 1020.4 hPa | 0 mm | - | - | - |
| 1777648204 | 6.11° C | 67% | 1020.4 hPa | 0 mm | - | - | - |
| 1777647604 | 5.56° C | 70% | 1020.4 hPa | 0 mm | - | - | - |
| 1777646420 | 4.44° C | 74% | 1020.5 hPa | 0 mm | - | - | - |
| 1777645804 | 3.89° C | 76% | 1020.4 hPa | 0 mm | - | - | - |
| 1777645202 | 3.89° C | 76% | 1020.5 hPa | 0 mm | - | - | - |
| 1777644605 | 3.33° C | 78% | 1020.4 hPa | 0 mm | - | - | - |
| 1777642803 | 2.78° C | 77% | 1020.2 hPa | 0 mm | - | - | - |
| 1777642204 | 2.22° C | 80% | 1020.1 hPa | 0 mm | - | - | - |
| 1777641619 | 2.22° C | 80% | 1020 hPa | 0 mm | - | - | - |
| 1777638603 | 0.56° C | 84% | 1019.8 hPa | 0 mm | - | - | - |
| 1777638003 | 0.56° C | 84% | 1019.7 hPa | 0 mm | - | - | - |
| 1777635603 | 0° C | 84% | 1019.1 hPa | 0 mm | - | - | - |
| 1777635004 | 0° C | 84% | 1019.1 hPa | 0 mm | - | - | - |
| 1777634402 | 0° C | 84% | 1019 hPa | 0 mm | - | - | - |
| 1777633803 | 0° C | 84% | 1019 hPa | 0 mm | - | - | - |
* Rain latest hour (hover to see other rain measurements)
** Current wind speed in m/s (hover to see current wind gust speed)